sensor_id;sensor_type;location;lat;lon;timestamp;pressure;altitude;pressure_sealevel;temperature;humidity
7760;BME280;3924;48.830;9.262;2023-02-19T00:01:33;99162.75;;;9.34;83.92
7760;BME280;3924;48.830;9.262;2023-02-19T00:04:02;99153.28;;;9.31;83.94
7760;BME280;3924;48.830;9.262;2023-02-19T00:06:31;99151.66;;;9.30;84.20
7760;BME280;3924;48.830;9.262;2023-02-19T00:08:58;99150.31;;;9.28;84.21
7760;BME280;3924;48.830;9.262;2023-02-19T00:11:28;99141.63;;;9.26;84.14
7760;BME280;3924;48.830;9.262;2023-02-19T00:13:56;99137.88;;;9.27;84.23
7760;BME280;3924;48.830;9.262;2023-02-19T00:16:28;99139.50;;;9.28;84.35
7760;BME280;3924;48.830;9.262;2023-02-19T00:18:56;99137.06;;;9.26;84.31
7760;BME280;3924;48.830;9.262;2023-02-19T00:21:24;99138.69;;;9.27;84.44
7760;BME280;3924;48.830;9.262;2023-02-19T00:23:55;99139.50;;;9.28;84.63
7760;BME280;3924;48.830;9.262;2023-02-19T00:26:22;99133.53;;;9.31;84.55
7760;BME280;3924;48.830;9.262;2023-02-19T00:28:49;99143.81;;;9.34;84.74
7760;BME280;3924;48.830;9.262;2023-02-19T00:31:22;99143.00;;;9.34;84.59
7760;BME280;3924;48.830;9.262;2023-02-19T00:33:51;99147.06;;;9.36;84.82
7760;BME280;3924;48.830;9.262;2023-02-19T00:36:19;99139.47;;;9.38;84.89
7760;BME280;3924;48.830;9.262;2023-02-19T00:38:46;99145.19;;;9.42;84.94
7760;BME280;3924;48.830;9.262;2023-02-19T00:41:14;99140.03;;;9.35;84.71
7760;BME280;3924;48.830;9.262;2023-02-19T00:43:50;99144.91;;;9.28;84.89
7760;BME280;3924;48.830;9.262;2023-02-19T00:48:59;99145.72;;;9.28;85.32
7760;BME280;3924;48.830;9.262;2023-02-19T00:51:29;99147.59;;;9.33;85.27
7760;BME280;3924;48.830;9.262;2023-02-19T00:53:57;99145.16;;;9.31;85.51
7760;BME280;3924;48.830;9.262;2023-02-19T00:56:23;99151.38;;;9.32;85.19
7760;BME280;3924;48.830;9.262;2023-02-19T00:58:50;99147.06;;;9.31;85.37
7760;BME280;3924;48.830;9.262;2023-02-19T01:01:17;99139.22;;;9.29;85.27
7760;BME280;3924;48.830;9.262;2023-02-19T01:03:44;99131.34;;;9.33;85.34
7760;BME280;3924;48.830;9.262;2023-02-19T01:06:13;99133.81;;;9.35;85.39
7760;BME280;3924;48.830;9.262;2023-02-19T01:08:40;99126.50;;;9.35;85.41
7760;BME280;3924;48.830;9.262;2023-02-19T01:11:07;99124.31;;;9.32;85.55
7760;BME280;3924;48.830;9.262;2023-02-19T01:13:35;99120.53;;;9.33;85.53
7760;BME280;3924;48.830;9.262;2023-02-19T01:16:03;99119.19;;;9.36;85.52
7760;BME280;3924;48.830;9.262;2023-02-19T01:18:30;99117.84;;;9.38;85.42
7760;BME280;3924;48.830;9.262;2023-02-19T01:20:57;99118.94;;;9.42;85.54
7760;BME280;3924;48.830;9.262;2023-02-19T01:23:24;99116.50;;;9.41;85.53
7760;BME280;3924;48.830;9.262;2023-02-19T01:25:51;99114.59;;;9.41;85.65
7760;BME280;3924;48.830;9.262;2023-02-19T01:28:17;99111.91;;;9.41;85.64
7760;BME280;3924;48.830;9.262;2023-02-19T01:30:44;99113.50;;;9.42;85.79
7760;BME280;3924;48.830;9.262;2023-02-19T01:33:10;99109.72;;;9.43;85.81
7760;BME280;3924;48.830;9.262;2023-02-19T01:35:38;99101.06;;;9.41;85.93
7760;BME280;3924;48.830;9.262;2023-02-19T01:38:04;99097.28;;;9.42;86.03
7760;BME280;3924;48.830;9.262;2023-02-19T01:40:33;99093.47;;;9.43;85.96
7760;BME280;3924;48.830;9.262;2023-02-19T01:43:00;99093.47;;;9.43;85.92
7760;BME280;3924;48.830;9.262;2023-02-19T01:45:33;99098.09;;;9.43;86.02
7760;BME280;3924;48.830;9.262;2023-02-19T01:48:08;99101.31;;;9.45;85.96
7760;BME280;3924;48.830;9.262;2023-02-19T01:51:06;99102.69;;;9.42;86.00
7760;BME280;3924;48.830;9.262;2023-02-19T01:53:42;99098.09;;;9.43;85.91
7760;BME280;3924;48.830;9.262;2023-02-19T01:56:12;99092.41;;;9.39;85.98
7760;BME280;3924;48.830;9.262;2023-02-19T01:58:40;99086.97;;;9.39;86.06
7760;BME280;3924;48.830;9.262;2023-02-19T02:01:07;99079.41;;;9.41;86.12
7760;BME280;3924;48.830;9.262;2023-02-19T02:03:36;99086.44;;;9.42;86.17
7760;BME280;3924;48.830;9.262;2023-02-19T02:06:12;99090.22;;;9.46;86.10
7760;BME280;3924;48.830;9.262;2023-02-19T02:08:41;99089.69;;;9.49;86.14
7760;BME280;3924;48.830;9.262;2023-02-19T02:11:26;99090.50;;;9.50;86.19
7760;BME280;3924;48.830;9.262;2023-02-19T02:13:53;99098.34;;;9.51;86.04
7760;BME280;3924;48.830;9.262;2023-02-19T02:16:41;99102.66;;;9.52;86.16
7760;BME280;3924;48.830;9.262;2023-02-19T02:24:39;99086.47;;;9.47;86.07
7760;BME280;3924;48.830;9.262;2023-02-19T02:27:26;99087.78;;;9.45;86.04
7760;BME280;3924;48.830;9.262;2023-02-19T02:32:29;99077.81;;;9.40;86.31
7760;BME280;3924;48.830;9.262;2023-02-19T02:35:06;99056.97;;;9.41;86.36
7760;BME280;3924;48.830;9.262;2023-02-19T02:37:37;99061.56;;;9.40;86.45
7760;BME280;3924;48.830;9.262;2023-02-19T02:40:04;99067.50;;;9.37;86.47
7760;BME280;3924;48.830;9.262;2023-02-19T02:42:33;99060.19;;;9.38;86.61
7760;BME280;3924;48.830;9.262;2023-02-19T02:53:22;99067.25;;;9.34;86.70
7760;BME280;3924;48.830;9.262;2023-02-19T02:56:10;99061.84;;;9.34;86.68
7760;BME280;3924;48.830;9.262;2023-02-19T02:58:38;99061.00;;;9.33;86.67
7760;BME280;3924;48.830;9.262;2023-02-19T03:01:11;99061.28;;;9.31;86.83
7760;BME280;3924;48.830;9.262;2023-02-19T03:04:03;99073.47;;;9.34;86.83
7760;BME280;3924;48.830;9.262;2023-02-19T03:06:33;99057.78;;;9.31;86.74
7760;BME280;3924;48.830;9.262;2023-02-19T03:09:08;99060.47;;;9.31;86.78
7760;BME280;3924;48.830;9.262;2023-02-19T03:11:39;99059.94;;;9.29;86.86
7760;BME280;3924;48.830;9.262;2023-02-19T03:14:36;99057.75;;;9.26;86.85
7760;BME280;3924;48.830;9.262;2023-02-19T03:17:31;99053.72;;;9.23;86.86
7760;BME280;3924;48.830;9.262;2023-02-19T03:20:22;99055.34;;;9.19;86.89
7760;BME280;3924;48.830;9.262;2023-02-19T03:22:51;99051.28;;;9.17;87.22
7760;BME280;3924;48.830;9.262;2023-02-19T03:25:24;99052.91;;;9.18;87.24
7760;BME280;3924;48.830;9.262;2023-02-19T03:28:11;99054.00;;;9.17;87.22
7760;BME280;3924;48.830;9.262;2023-02-19T03:30:43;99042.63;;;9.15;87.33
7760;BME280;3924;48.830;9.262;2023-02-19T03:33:25;99049.94;;;9.14;87.22
7760;BME280;3924;48.830;9.262;2023-02-19T03:35:57;99048.06;;;9.15;87.46
7760;BME280;3924;48.830;9.262;2023-02-19T03:38:30;99048.06;;;9.15;87.40
7760;BME280;3924;48.830;9.262;2023-02-19T03:41:06;99051.84;;;9.14;87.29
7760;BME280;3924;48.830;9.262;2023-02-19T03:43:51;99043.44;;;9.15;87.45
7760;BME280;3924;48.830;9.262;2023-02-19T03:46:34;99042.63;;;9.15;87.49
7760;BME280;3924;48.830;9.262;2023-02-19T03:49:09;99053.72;;;9.13;87.40
7760;BME280;3924;48.830;9.262;2023-02-19T03:51:46;99049.66;;;9.11;87.46
7760;BME280;3924;48.830;9.262;2023-02-19T03:56:51;99056.44;;;9.08;87.65
7760;BME280;3924;48.830;9.262;2023-02-19T03:59:32;99058.31;;;9.08;87.72
7760;BME280;3924;48.830;9.262;2023-02-19T04:02:16;99062.94;;;9.07;87.73
7760;BME280;3924;48.830;9.262;2023-02-19T04:04:49;99065.34;;;9.09;87.74
7760;BME280;3924;48.830;9.262;2023-02-19T04:07:17;99068.06;;;9.09;87.84
7760;BME280;3924;48.830;9.262;2023-02-19T04:09:47;99064.28;;;9.10;87.88
7760;BME280;3924;48.830;9.262;2023-02-19T04:12:15;99069.69;;;9.10;87.92
7760;BME280;3924;48.830;9.262;2023-02-19T04:14:48;99074.81;;;9.11;87.94
7760;BME280;3924;48.830;9.262;2023-02-19T04:17:22;99082.91;;;9.11;87.91
7760;BME280;3924;48.830;9.262;2023-02-19T04:19:51;99076.16;;;9.09;88.15
7760;BME280;3924;48.830;9.262;2023-02-19T04:22:20;99079.69;;;9.09;88.02
7760;BME280;3924;48.830;9.262;2023-02-19T04:24:49;99074.56;;;9.08;88.33
7760;BME280;3924;48.830;9.262;2023-02-19T04:27:17;99085.09;;;9.09;88.67
7760;BME280;3924;48.830;9.262;2023-02-19T04:29:43;99083.19;;;9.10;88.23
7760;BME280;3924;48.830;9.262;2023-02-19T04:32:11;99085.63;;;9.11;88.07
7760;BME280;3924;48.830;9.262;2023-02-19T04:34:38;99104.31;;;9.13;87.92
7760;BME280;3924;48.830;9.262;2023-02-19T04:37:05;99097.25;;;9.12;88.20
7760;BME280;3924;48.830;9.262;2023-02-19T04:39:32;99106.19;;;9.12;88.06
7760;BME280;3924;48.830;9.262;2023-02-19T04:42:00;99103.22;;;9.09;88.28
7760;BME280;3924;48.830;9.262;2023-02-19T04:44:27;99107.53;;;9.10;88.21
7760;BME280;3924;48.830;9.262;2023-02-19T04:46:54;99113.22;;;9.08;88.43
7760;BME280;3924;48.830;9.262;2023-02-19T04:49:20;99110.78;;;9.07;88.10
7760;BME280;3924;48.830;9.262;2023-02-19T04:51:47;99111.31;;;9.03;88.24
7760;BME280;3924;48.830;9.262;2023-02-19T04:54:13;99122.16;;;9.09;88.31
7760;BME280;3924;48.830;9.262;2023-02-19T04:56:40;99130.78;;;9.11;88.15
7760;BME280;3924;48.830;9.262;2023-02-19T04:59:06;99126.72;;;9.03;88.28
7760;BME280;3924;48.830;9.262;2023-02-19T05:01:33;99135.69;;;9.09;88.39
7760;BME280;3924;48.830;9.262;2023-02-19T05:03:59;99127.53;;;9.03;88.43
7760;BME280;3924;48.830;9.262;2023-02-19T05:06:26;99126.22;;;9.06;88.39
7760;BME280;3924;48.830;9.262;2023-02-19T05:08:52;99118.34;;;9.04;88.30
7760;BME280;3924;48.830;9.262;2023-02-19T05:11:20;99121.31;;;9.03;88.41
7760;BME280;3924;48.830;9.262;2023-02-19T05:13:49;99139.72;;;9.01;88.27
7760;BME280;3924;48.830;9.262;2023-02-19T05:16:15;99136.75;;;9.02;88.45
7760;BME280;3924;48.830;9.262;2023-02-19T05:18:43;99137.81;;;9.01;88.16
7760;BME280;3924;48.830;9.262;2023-02-19T05:21:11;99138.91;;;9.00;88.35
7760;BME280;3924;48.830;9.262;2023-02-19T05:23:39;99131.88;;;8.99;88.30
7760;BME280;3924;48.830;9.262;2023-02-19T05:26:15;99127.53;;;8.98;88.37
7760;BME280;3924;48.830;9.262;2023-02-19T05:28:52;99133.75;;;8.99;88.22
7760;BME280;3924;48.830;9.262;2023-02-19T05:31:19;99128.63;;;8.97;88.32
7760;BME280;3924;48.830;9.262;2023-02-19T05:33:46;99133.22;;;8.97;88.18
7760;BME280;3924;48.830;9.262;2023-02-19T05:36:18;99128.34;;;8.94;88.25
7760;BME280;3924;48.830;9.262;2023-02-19T05:38:45;99129.97;;;8.95;88.28
7760;BME280;3924;48.830;9.262;2023-02-19T05:41:14;99144.56;;;8.94;88.40
7760;BME280;3924;48.830;9.262;2023-02-19T05:43:43;99138.88;;;8.90;88.21
7760;BME280;3924;48.830;9.262;2023-02-19T05:46:11;99146.47;;;8.93;88.18
7760;BME280;3924;48.830;9.262;2023-02-19T05:48:38;99151.31;;;8.91;88.26
7760;BME280;3924;48.830;9.262;2023-02-19T05:51:11;99145.38;;;8.89;88.36
7760;BME280;3924;48.830;9.262;2023-02-19T05:53:39;99144.81;;;8.87;88.19
7760;BME280;3924;48.830;9.262;2023-02-19T05:58:58;99148.63;;;8.86;88.18
7760;BME280;3924;48.830;9.262;2023-02-19T06:01:27;99144.81;;;8.87;88.15
7760;BME280;3924;48.830;9.262;2023-02-19T06:03:55;99157.25;;;8.88;88.29
7760;BME280;3924;48.830;9.262;2023-02-19T06:06:23;99154.84;;;8.87;88.16
7760;BME280;3924;48.830;9.262;2023-02-19T06:08:50;99147.25;;;8.89;88.33
7760;BME280;3924;48.830;9.262;2023-02-19T06:11:18;99157.81;;;8.90;88.24
7760;BME280;3924;48.830;9.262;2023-02-19T06:13:45;99154.81;;;8.92;88.34
7760;BME280;3924;48.830;9.262;2023-02-19T06:16:11;99160.81;;;8.94;88.21
7760;BME280;3924;48.830;9.262;2023-02-19T06:18:38;99164.81;;;8.91;88.15
7760;BME280;3924;48.830;9.262;2023-02-19T06:21:09;99179.44;;;8.95;88.06
7760;BME280;3924;48.830;9.262;2023-02-19T06:23:37;99175.41;;;8.93;88.05
7760;BME280;3924;48.830;9.262;2023-02-19T06:26:09;99192.44;;;8.93;88.01
7760;BME280;3924;48.830;9.262;2023-02-19T06:28:36;99184.06;;;8.95;87.87
7760;BME280;3924;48.830;9.262;2023-02-19T06:31:04;99161.06;;;8.92;87.83
7760;BME280;3924;48.830;9.262;2023-02-19T06:33:31;99172.69;;;8.98;87.98
7760;BME280;3924;48.830;9.262;2023-02-19T06:36:00;99165.94;;;8.95;87.75
7760;BME280;3924;48.830;9.262;2023-02-19T06:38:27;99176.22;;;8.98;87.78
7760;BME280;3924;48.830;9.262;2023-02-19T06:40:58;99180.56;;;8.99;87.69
7760;BME280;3924;48.830;9.262;2023-02-19T06:43:25;99178.38;;;9.01;87.67
7760;BME280;3924;48.830;9.262;2023-02-19T06:45:51;99188.09;;;8.97;87.90
7760;BME280;3924;48.830;9.262;2023-02-19T06:48:18;99198.41;;;9.00;87.63
7760;BME280;3924;48.830;9.262;2023-02-19T06:50:44;99206.25;;;9.02;87.68
7760;BME280;3924;48.830;9.262;2023-02-19T06:53:11;99210.88;;;9.07;87.61
7760;BME280;3924;48.830;9.262;2023-02-19T06:55:38;99210.59;;;9.08;87.36
7760;BME280;3924;48.830;9.262;2023-02-19T06:58:05;99212.50;;;9.08;87.42
7760;BME280;3924;48.830;9.262;2023-02-19T07:00:33;99220.88;;;9.11;87.45
7760;BME280;3924;48.830;9.262;2023-02-19T07:03:00;99225.19;;;9.12;87.29
7760;BME280;3924;48.830;9.262;2023-02-19T07:05:28;99233.59;;;9.16;87.23
7760;BME280;3924;48.830;9.262;2023-02-19T07:07:55;99226.03;;;9.18;87.22
7760;BME280;3924;48.830;9.262;2023-02-19T07:10:21;99228.75;;;9.23;87.03
7760;BME280;3924;48.830;9.262;2023-02-19T07:12:48;99234.44;;;9.21;87.03
7760;BME280;3924;48.830;9.262;2023-02-19T07:15:14;99228.75;;;9.23;86.76
7760;BME280;3924;48.830;9.262;2023-02-19T07:17:41;99239.31;;;9.24;86.89
7760;BME280;3924;48.830;9.262;2023-02-19T07:20:07;99243.91;;;9.24;86.84
7760;BME280;3924;48.830;9.262;2023-02-19T07:22:34;99254.44;;;9.25;86.83
7760;BME280;3924;48.830;9.262;2023-02-19T07:25:00;99252.31;;;9.27;86.78
7760;BME280;3924;48.830;9.262;2023-02-19T07:27:27;99249.84;;;9.26;86.55
7760;BME280;3924;48.830;9.262;2023-02-19T07:29:53;99255.25;;;9.26;86.43
7760;BME280;3924;48.830;9.262;2023-02-19T07:32:20;99246.09;;;9.27;86.30
7760;BME280;3924;48.830;9.262;2023-02-19T07:34:46;99251.75;;;9.25;86.42
7760;BME280;3924;48.830;9.262;2023-02-19T07:37:13;99266.09;;;9.31;86.38
7760;BME280;3924;48.830;9.262;2023-02-19T07:39:39;99265.56;;;9.29;86.16
7760;BME280;3924;48.830;9.262;2023-02-19T07:42:06;99269.63;;;9.31;86.07
7760;BME280;3924;48.830;9.262;2023-02-19T07:44:32;99257.97;;;9.31;86.32
7760;BME280;3924;48.830;9.262;2023-02-19T07:46:59;99261.78;;;9.30;86.05
7760;BME280;3924;48.830;9.262;2023-02-19T07:49:25;99256.63;;;9.28;85.92
7760;BME280;3924;48.830;9.262;2023-02-19T07:51:52;99268.53;;;9.32;85.84
7760;BME280;3924;48.830;9.262;2023-02-19T07:54:19;99259.59;;;9.32;85.78
7760;BME280;3924;48.830;9.262;2023-02-19T07:56:45;99265.31;;;9.36;85.97
7760;BME280;3924;48.830;9.262;2023-02-19T07:59:11;99280.75;;;9.40;85.61
7760;BME280;3924;48.830;9.262;2023-02-19T08:01:38;99258.53;;;9.38;85.56
7760;BME280;3924;48.830;9.262;2023-02-19T08:04:23;99263.44;;;9.41;85.38
7760;BME280;3924;48.830;9.262;2023-02-19T08:06:51;99258.03;;;9.41;85.57
7760;BME280;3924;48.830;9.262;2023-02-19T08:09:18;99268.56;;;9.43;85.23
7760;BME280;3924;48.830;9.262;2023-02-19T08:11:44;99269.38;;;9.38;85.20
7760;BME280;3924;48.830;9.262;2023-02-19T08:14:29;99258.53;;;9.38;85.08
7760;BME280;3924;48.830;9.262;2023-02-19T08:16:56;99269.09;;;9.40;84.81
7760;BME280;3924;48.830;9.262;2023-02-19T08:19:22;99276.41;;;9.39;85.08
7760;BME280;3924;48.830;9.262;2023-02-19T08:21:49;99281.81;;;9.39;84.99
7760;BME280;3924;48.830;9.262;2023-02-19T08:24:16;99292.91;;;9.38;84.98
7760;BME280;3924;48.830;9.262;2023-02-19T08:26:42;99288.88;;;9.40;84.68
7760;BME280;3924;48.830;9.262;2023-02-19T08:29:09;99297.00;;;9.40;84.65
7760;BME280;3924;48.830;9.262;2023-02-19T08:31:35;99303.22;;;9.41;84.67
7760;BME280;3924;48.830;9.262;2023-02-19T08:34:02;99301.31;;;9.41;84.62
7760;BME280;3924;48.830;9.262;2023-02-19T08:36:29;99309.97;;;9.43;84.53
7760;BME280;3924;48.830;9.262;2023-02-19T08:38:56;99307.81;;;9.45;84.40
7760;BME280;3924;48.830;9.262;2023-02-19T08:41:22;99317.56;;;9.46;84.19
7760;BME280;3924;48.830;9.262;2023-02-19T08:43:49;99321.63;;;9.49;84.18
7760;BME280;3924;48.830;9.262;2023-02-19T08:46:16;99319.75;;;9.49;84.13
7760;BME280;3924;48.830;9.262;2023-02-19T08:48:42;99312.72;;;9.48;84.11
7760;BME280;3924;48.830;9.262;2023-02-19T08:51:10;99316.50;;;9.52;84.02
7760;BME280;3924;48.830;9.262;2023-02-19T08:53:38;99325.72;;;9.56;83.97
7760;BME280;3924;48.830;9.262;2023-02-19T08:56:08;99318.44;;;9.62;83.79
7760;BME280;3924;48.830;9.262;2023-02-19T08:58:35;99318.69;;;9.66;83.67
7760;BME280;3924;48.830;9.262;2023-02-19T09:01:07;99316.81;;;9.71;83.56
7760;BME280;3924;48.830;9.262;2023-02-19T09:03:35;99322.53;;;9.75;83.28
7760;BME280;3924;48.830;9.262;2023-02-19T09:06:02;99323.06;;;9.77;83.15
7760;BME280;3924;48.830;9.262;2023-02-19T09:08:28;99329.28;;;9.77;82.95
7760;BME280;3924;48.830;9.262;2023-02-19T09:11:02;99332.53;;;9.79;82.99
7760;BME280;3924;48.830;9.262;2023-02-19T09:13:29;99337.44;;;9.82;82.80
7760;BME280;3924;48.830;9.262;2023-02-19T09:15:56;99342.00;;;9.87;82.68
7760;BME280;3924;48.830;9.262;2023-02-19T09:18:24;99339.06;;;9.89;82.55
7760;BME280;3924;48.830;9.262;2023-02-19T09:20:51;99342.00;;;9.87;82.65
7760;BME280;3924;48.830;9.262;2023-02-19T09:23:18;99342.81;;;9.87;82.23
7760;BME280;3924;48.830;9.262;2023-02-19T09:25:44;99343.63;;;9.88;82.49
7760;BME280;3924;48.830;9.262;2023-02-19T09:28:11;99359.91;;;9.93;82.26
7760;BME280;3924;48.830;9.262;2023-02-19T09:30:37;99355.88;;;9.96;82.10
7760;BME280;3924;48.830;9.262;2023-02-19T09:33:04;99362.09;;;9.96;81.94
7760;BME280;3924;48.830;9.262;2023-02-19T09:35:31;99364.81;;;9.96;82.13
7760;BME280;3924;48.830;9.262;2023-02-19T09:37:59;99365.34;;;9.98;81.85
7760;BME280;3924;48.830;9.262;2023-02-19T09:40:28;99363.72;;;9.97;81.75
7760;BME280;3924;48.830;9.262;2023-02-19T09:42:55;99362.91;;;9.97;81.78
7760;BME280;3924;48.830;9.262;2023-02-19T09:45:24;99367.50;;;9.96;81.61
7760;BME280;3924;48.830;9.262;2023-02-19T09:47:53;99370.19;;;10.01;81.46
7760;BME280;3924;48.830;9.262;2023-02-19T09:50:26;99370.78;;;10.03;81.32
7760;BME280;3924;48.830;9.262;2023-02-19T09:53:01;99373.47;;;10.08;81.15
7760;BME280;3924;48.830;9.262;2023-02-19T09:55:40;99370.25;;;10.11;80.81
7760;BME280;3924;48.830;9.262;2023-02-19T09:58:20;99374.03;;;10.21;80.80
7760;BME280;3924;48.830;9.262;2023-02-19T10:00:50;99368.91;;;10.29;80.55
7760;BME280;3924;48.830;9.262;2023-02-19T10:03:24;99374.06;;;10.41;80.29
7760;BME280;3924;48.830;9.262;2023-02-19T10:05:58;99370.28;;;10.52;80.02
7760;BME280;3924;48.830;9.262;2023-02-19T10:08:30;99363.50;;;10.65;79.63
7760;BME280;3924;48.830;9.262;2023-02-19T10:10:59;99367.00;;;10.81;79.30
7760;BME280;3924;48.830;9.262;2023-02-19T10:13:33;99361.00;;;10.84;78.91
7760;BME280;3924;48.830;9.262;2023-02-19T10:16:03;99367.81;;;10.91;78.61
7760;BME280;3924;48.830;9.262;2023-02-19T10:18:38;99371.56;;;10.90;78.54
7760;BME280;3924;48.830;9.262;2023-02-19T10:21:19;99376.75;;;10.92;78.68
7760;BME280;3924;48.830;9.262;2023-02-19T10:23:51;99376.72;;;10.97;78.14
7760;BME280;3924;48.830;9.262;2023-02-19T10:26:18;99378.63;;;10.96;77.87
7760;BME280;3924;48.830;9.262;2023-02-19T10:28:45;99378.91;;;10.95;77.85
7760;BME280;3924;48.830;9.262;2023-02-19T10:31:17;99383.81;;;10.98;77.75
7760;BME280;3924;48.830;9.262;2023-02-19T10:33:54;99400.88;;;10.99;77.46
7760;BME280;3924;48.830;9.262;2023-02-19T10:36:32;99413.88;;;11.02;77.25
7760;BME280;3924;48.830;9.262;2023-02-19T10:39:02;99393.81;;;10.98;76.99
7760;BME280;3924;48.830;9.262;2023-02-19T10:41:33;99403.84;;;10.97;77.03
7760;BME280;3924;48.830;9.262;2023-02-19T10:44:20;99419.59;;;11.00;76.78
7760;BME280;3924;48.830;9.262;2023-02-19T10:46:50;99417.69;;;10.95;76.55
7760;BME280;3924;48.830;9.262;2023-02-19T10:49:30;99406.03;;;10.95;76.37
7760;BME280;3924;48.830;9.262;2023-02-19T10:54:49;99428.25;;;11.02;75.98
7760;BME280;3924;48.830;9.262;2023-02-19T10:59:51;99414.69;;;11.07;75.35
7760;BME280;3924;48.830;9.262;2023-02-19T11:02:20;99417.41;;;11.12;75.20
7760;BME280;3924;48.830;9.262;2023-02-19T11:05:19;99414.66;;;11.17;74.96
7760;BME280;3924;48.830;9.262;2023-02-19T11:07:48;99416.03;;;11.20;74.82
7760;BME280;3924;48.830;9.262;2023-02-19T11:10:24;99427.69;;;11.20;74.46
7760;BME280;3924;48.830;9.262;2023-02-19T11:12:54;99415.75;;;11.11;74.34
7760;BME280;3924;48.830;9.262;2023-02-19T11:15:25;99401.38;;;11.16;74.19
7760;BME280;3924;48.830;9.262;2023-02-19T11:20:22;99422.00;;;11.27;73.78
7760;BME280;3924;48.830;9.262;2023-02-19T11:22:49;99429.31;;;11.21;73.53
7760;BME280;3924;48.830;9.262;2023-02-19T11:25:19;99430.41;;;11.20;73.52
7760;BME280;3924;48.830;9.262;2023-02-19T11:28:16;99419.56;;;11.15;73.29
7760;BME280;3924;48.830;9.262;2023-02-19T11:30:46;99397.31;;;11.03;73.08
7760;BME280;3924;48.830;9.262;2023-02-19T11:33:18;99398.94;;;11.04;73.29
7760;BME280;3924;48.830;9.262;2023-02-19T11:35:46;99409.81;;;11.09;72.95
7760;BME280;3924;48.830;9.262;2023-02-19T11:38:15;99421.22;;;11.06;73.01
7760;BME280;3924;48.830;9.262;2023-02-19T11:46:00;99429.34;;;11.01;72.76
7760;BME280;3924;48.830;9.262;2023-02-19T12:02:57;99437.22;;;11.08;71.55
7760;BME280;3924;48.830;9.262;2023-02-19T12:11:10;99438.06;;;10.98;71.57
7760;BME280;3924;48.830;9.262;2023-02-19T12:16:32;99433.16;;;11.00;71.36
7760;BME280;3924;48.830;9.262;2023-02-19T12:22:15;99446.97;;;11.14;70.98
7760;BME280;3924;48.830;9.262;2023-02-19T12:38:59;99425.03;;;11.00;70.68
7760;BME280;3924;48.830;9.262;2023-02-19T12:41:50;99426.13;;;10.99;70.71
7760;BME280;3924;48.830;9.262;2023-02-19T12:47:02;99412.22;;;11.11;70.23
7760;BME280;3924;48.830;9.262;2023-02-19T12:49:41;99409.81;;;11.14;69.93
7760;BME280;3924;48.830;9.262;2023-02-19T12:52:20;99406.78;;;11.26;69.79
7760;BME280;3924;48.830;9.262;2023-02-19T12:54:51;99414.31;;;11.44;69.26
7760;BME280;3924;48.830;9.262;2023-02-19T12:57:26;99425.97;;;11.55;69.04
7760;BME280;3924;48.830;9.262;2023-02-19T13:00:03;99424.91;;;11.46;69.12
7760;BME280;3924;48.830;9.262;2023-02-19T13:05:21;99416.84;;;11.26;69.22
7760;BME280;3924;48.830;9.262;2023-02-19T13:08:42;99425.56;;;11.07;69.35
7760;BME280;3924;48.830;9.262;2023-02-19T13:11:23;99428.81;;;10.99;69.58
7760;BME280;3924;48.830;9.262;2023-02-19T13:13:57;99415.78;;;10.91;69.62
7760;BME280;3924;48.830;9.262;2023-02-19T13:16:26;99407.69;;;10.86;69.63
7760;BME280;3924;48.830;9.262;2023-02-19T13:19:00;99408.22;;;10.83;69.72
7760;BME280;3924;48.830;9.262;2023-02-19T13:21:34;99416.38;;;10.78;69.73
7760;BME280;3924;48.830;9.262;2023-02-19T13:24:26;99415.00;;;10.70;69.81
7760;BME280;3924;48.830;9.262;2023-02-19T13:27:25;99402.28;;;10.65;69.94
7760;BME280;3924;48.830;9.262;2023-02-19T13:33:04;99416.13;;;10.64;69.65
7760;BME280;3924;48.830;9.262;2023-02-19T13:36:00;99421.78;;;10.67;69.55
7760;BME280;3924;48.830;9.262;2023-02-19T13:38:35;99416.66;;;10.71;69.47
7760;BME280;3924;48.830;9.262;2023-02-19T13:41:03;99410.41;;;10.71;69.37
7760;BME280;3924;48.830;9.262;2023-02-19T13:43:32;99421.78;;;10.67;69.37
7760;BME280;3924;48.830;9.262;2023-02-19T13:46:11;99410.41;;;10.60;69.46
7760;BME280;3924;48.830;9.262;2023-02-19T13:48:40;99416.38;;;10.47;69.68
7760;BME280;3924;48.830;9.262;2023-02-19T14:14:52;99398.13;;;10.22;71.04
7760;BME280;3924;48.830;9.262;2023-02-19T14:17:36;99401.16;;;10.26;70.92
7760;BME280;3924;48.830;9.262;2023-02-19T14:30:52;99416.63;;;10.46;70.84
7760;BME280;3924;48.830;9.262;2023-02-19T14:33:26;99423.41;;;10.48;70.73
7760;BME280;3924;48.830;9.262;2023-02-19T14:36:08;99418.00;;;10.48;70.94
7760;BME280;3924;48.830;9.262;2023-02-19T14:38:47;99426.41;;;10.47;70.85
7760;BME280;3924;48.830;9.262;2023-02-19T14:41:16;99418.00;;;10.48;70.90
7760;BME280;3924;48.830;9.262;2023-02-19T14:43:46;99414.75;;;10.51;70.83
7760;BME280;3924;48.830;9.262;2023-02-19T14:46:28;99420.97;;;10.52;70.80
7760;BME280;3924;48.830;9.262;2023-02-19T14:49:06;99432.38;;;10.54;70.85
7760;BME280;3924;48.830;9.262;2023-02-19T14:51:39;99436.69;;;10.55;70.88
7760;BME280;3924;48.830;9.262;2023-02-19T14:54:14;99440.22;;;10.55;70.85
7760;BME280;3924;48.830;9.262;2023-02-19T14:56:43;99431.28;;;10.55;70.76
7760;BME280;3924;48.830;9.262;2023-02-19T15:01:38;99434.25;;;10.53;70.58
7760;BME280;3924;48.830;9.262;2023-02-19T15:04:20;99429.13;;;10.52;70.79
7760;BME280;3924;48.830;9.262;2023-02-19T15:06:47;99440.78;;;10.52;70.64
7760;BME280;3924;48.830;9.262;2023-02-19T15:09:15;99442.66;;;10.52;70.73
7760;BME280;3924;48.830;9.262;2023-02-19T15:11:42;99458.66;;;10.53;70.51
7760;BME280;3924;48.830;9.262;2023-02-19T15:14:20;99461.38;;;10.53;70.49
7760;BME280;3924;48.830;9.262;2023-02-19T15:16:55;99461.66;;;10.52;70.35
7760;BME280;3924;48.830;9.262;2023-02-19T15:19:22;99462.97;;;10.49;70.40
7760;BME280;3924;48.830;9.262;2023-02-19T15:21:49;99480.34;;;10.48;70.38
7760;BME280;3924;48.830;9.262;2023-02-19T15:24:17;99473.56;;;10.46;70.40
7760;BME280;3924;48.830;9.262;2023-02-19T15:26:49;99476.56;;;10.44;70.31
7760;BME280;3924;48.830;9.262;2023-02-19T15:29:18;99474.94;;;10.43;70.48
7760;BME280;3924;48.830;9.262;2023-02-19T15:31:56;99479.25;;;10.39;70.33
7760;BME280;3924;48.830;9.262;2023-02-19T15:34:28;99477.63;;;10.38;70.31
7760;BME280;3924;48.830;9.262;2023-02-19T15:37:06;99480.59;;;10.36;70.34
7760;BME280;3924;48.830;9.262;2023-02-19T15:39:43;99483.56;;;10.35;70.23
7760;BME280;3924;48.830;9.262;2023-02-19T15:42:16;99491.69;;;10.35;70.31
7760;BME280;3924;48.830;9.262;2023-02-19T15:47:15;99481.94;;;10.34;70.11
7760;BME280;3924;48.830;9.262;2023-02-19T15:50:03;99481.13;;;10.33;70.25
7760;BME280;3924;48.830;9.262;2023-02-19T15:52:40;99477.06;;;10.31;70.12
7760;BME280;3924;48.830;9.262;2023-02-19T15:56:06;99466.75;;;10.28;70.14
7760;BME280;3924;48.830;9.262;2023-02-19T15:58:21;99459.69;;;10.27;70.17